sensor_id;sensor_type;location;lat;lon;timestamp;pressure;altitude;pressure_sealevel;temperature;humidity
7018;BME280;3549;42.162;24.726;2023-02-15T00:00:53;47699.75;;;-141.97;55.67
7018;BME280;3549;42.162;24.726;2023-02-15T00:03:20;47665.16;;;-141.97;55.93
7018;BME280;3549;42.162;24.726;2023-02-15T00:05:46;47561.38;;;-141.97;56.18
7018;BME280;3549;42.162;24.726;2023-02-15T00:08:12;47569.06;;;-141.97;56.37
7018;BME280;3549;42.162;24.726;2023-02-15T00:10:37;47738.19;;;-141.97;56.67
7018;BME280;3549;42.162;24.726;2023-02-15T00:13:03;47603.66;;;-141.97;56.57
7018;BME280;3549;42.162;24.726;2023-02-15T00:15:29;47619.03;;;-141.97;57.26
7018;BME280;3549;42.162;24.726;2023-02-15T00:17:54;47570.97;;;-141.97;57.72
7018;BME280;3549;42.162;24.726;2023-02-15T00:20:19;47569.06;;;-141.97;57.85
7018;BME280;3549;42.162;24.726;2023-02-15T00:22:45;47669.00;;;-141.97;57.96
7018;BME280;3549;42.162;24.726;2023-02-15T00:25:10;47711.28;;;-141.97;58.35
7018;BME280;3549;42.162;24.726;2023-02-15T00:27:36;47686.31;;;-141.97;58.30
7018;BME280;3549;42.162;24.726;2023-02-15T00:30:01;47695.91;;;-141.97;58.68
7018;BME280;3549;42.162;24.726;2023-02-15T00:32:26;47576.75;;;-141.97;59.05
7018;BME280;3549;42.162;24.726;2023-02-15T00:34:52;47726.66;;;-141.97;59.00
7018;BME280;3549;42.162;24.726;2023-02-15T00:37:17;47682.47;;;-141.97;59.25
7018;BME280;3549;42.162;24.726;2023-02-15T00:39:43;47688.22;;;-141.97;59.34
7018;BME280;3549;42.162;24.726;2023-02-15T00:42:08;47757.41;;;-141.97;59.54
7018;BME280;3549;42.162;24.726;2023-02-15T00:44:33;47661.31;;;-141.97;59.60
7018;BME280;3549;42.162;24.726;2023-02-15T00:46:59;47669.00;;;-141.97;59.80
7018;BME280;3549;42.162;24.726;2023-02-15T00:49:24;47680.53;;;-141.97;58.77
7018;BME280;3549;42.162;24.726;2023-02-15T00:51:50;47557.53;;;-141.97;59.08
7018;BME280;3549;42.162;24.726;2023-02-15T00:54:15;47742.03;;;-141.97;59.48
7018;BME280;3549;42.162;24.726;2023-02-15T00:56:40;47590.19;;;-141.97;58.89
7018;BME280;3549;42.162;24.726;2023-02-15T00:59:07;47595.97;;;-141.97;59.03
7018;BME280;3549;42.162;24.726;2023-02-15T01:01:33;47599.81;;;-141.97;58.76
7018;BME280;3549;42.162;24.726;2023-02-15T01:03:58;47674.78;;;-141.97;58.33
7018;BME280;3549;42.162;24.726;2023-02-15T01:06:24;47690.16;;;-141.97;58.28
7018;BME280;3549;42.162;24.726;2023-02-15T01:08:49;47657.47;;;-141.97;58.36
7018;BME280;3549;42.162;24.726;2023-02-15T01:11:17;47534.44;;;-141.97;58.25
7018;BME280;3549;42.162;24.726;2023-02-15T01:13:50;47561.38;;;-141.97;58.25
7018;BME280;3549;42.162;24.726;2023-02-15T01:16:16;47661.31;;;-141.97;58.50
7018;BME280;3549;42.162;24.726;2023-02-15T01:18:42;47644.00;;;-141.97;58.68
7018;BME280;3549;42.162;24.726;2023-02-15T01:21:17;47642.09;;;-141.97;58.99
7018;BME280;3549;42.162;24.726;2023-02-15T01:23:43;47615.19;;;-141.97;59.56
7018;BME280;3549;42.162;24.726;2023-02-15T01:26:09;47653.63;;;-141.97;59.37
7018;BME280;3549;42.162;24.726;2023-02-15T01:28:35;47724.75;;;-141.97;59.01
7018;BME280;3549;42.162;24.726;2023-02-15T01:31:21;47703.59;;;-141.97;58.73
7018;BME280;3549;42.162;24.726;2023-02-15T01:33:47;47624.78;;;-141.97;58.76
7018;BME280;3549;42.162;24.726;2023-02-15T01:36:13;47655.53;;;-141.97;58.21
7018;BME280;3549;42.162;24.726;2023-02-15T01:38:39;47611.34;;;-141.97;58.59
7018;BME280;3549;42.162;24.726;2023-02-15T01:41:05;47697.84;;;-141.97;58.69
7018;BME280;3549;42.162;24.726;2023-02-15T01:46:52;47669.00;;;-141.97;57.73
7018;BME280;3549;42.162;24.726;2023-02-15T01:49:20;47663.22;;;-141.97;57.93
7018;BME280;3549;42.162;24.726;2023-02-15T01:51:50;47592.13;;;-141.97;58.20
7018;BME280;3549;42.162;24.726;2023-02-15T01:54:40;47674.78;;;-141.97;57.89
7018;BME280;3549;42.162;24.726;2023-02-15T01:57:10;47590.19;;;-141.97;58.80
7018;BME280;3549;42.162;24.726;2023-02-15T01:59:38;47661.31;;;-141.97;58.36
7018;BME280;3549;42.162;24.726;2023-02-15T02:02:07;47734.34;;;-141.97;58.83
7018;BME280;3549;42.162;24.726;2023-02-15T02:04:45;47759.34;;;-141.97;58.77
7018;BME280;3549;42.162;24.726;2023-02-15T02:07:14;47642.09;;;-141.97;58.80
7018;BME280;3549;42.162;24.726;2023-02-15T02:09:40;47669.00;;;-141.97;58.60
7018;BME280;3549;42.162;24.726;2023-02-15T02:12:07;47669.00;;;-141.97;59.46
7018;BME280;3549;42.162;24.726;2023-02-15T02:14:33;47655.53;;;-141.97;59.80
7018;BME280;3549;42.162;24.726;2023-02-15T02:17:07;47645.94;;;-141.97;59.03
7018;BME280;3549;42.162;24.726;2023-02-15T02:19:45;47649.78;;;-141.97;60.00
7018;BME280;3549;42.162;24.726;2023-02-15T02:33:38;47682.47;;;-141.97;59.84
7018;BME280;3549;42.162;24.726;2023-02-15T02:41:50;47686.31;;;-141.97;59.91
7018;BME280;3549;42.162;24.726;2023-02-15T02:47:20;47678.63;;;-141.97;59.21
7018;BME280;3549;42.162;24.726;2023-02-15T02:49:52;47649.78;;;-141.97;58.80
7018;BME280;3549;42.162;24.726;2023-02-15T02:52:42;47661.31;;;-141.97;58.21
7018;BME280;3549;42.162;24.726;2023-02-15T02:58:06;47642.09;;;-141.97;58.08
7018;BME280;3549;42.162;24.726;2023-02-15T03:00:50;47742.03;;;-141.97;58.57
7018;BME280;3549;42.162;24.726;2023-02-15T03:03:27;47670.91;;;-141.97;58.42
7018;BME280;3549;42.162;24.726;2023-02-15T03:05:57;47734.34;;;-141.97;58.44
7018;BME280;3549;42.162;24.726;2023-02-15T03:08:28;47672.84;;;-141.97;58.52
7018;BME280;3549;42.162;24.726;2023-02-15T03:10:59;47653.63;;;-141.97;58.66
7018;BME280;3549;42.162;24.726;2023-02-15T03:13:26;47678.63;;;-141.97;58.88
7018;BME280;3549;42.162;24.726;2023-02-15T03:15:52;47630.56;;;-141.97;59.14
7018;BME280;3549;42.162;24.726;2023-02-15T03:18:49;47642.09;;;-141.97;60.09
7018;BME280;3549;42.162;24.726;2023-02-15T03:21:21;47705.53;;;-141.97;60.34
7018;BME280;3549;42.162;24.726;2023-02-15T03:23:57;47670.91;;;-141.97;60.55
7018;BME280;3549;42.162;24.726;2023-02-15T03:26:25;47653.63;;;-141.97;61.09
7018;BME280;3549;42.162;24.726;2023-02-15T03:28:54;47686.31;;;-141.97;60.98
7018;BME280;3549;42.162;24.726;2023-02-15T03:31:25;47642.09;;;-141.97;61.31
7018;BME280;3549;42.162;24.726;2023-02-15T03:34:06;47686.31;;;-141.97;61.71
7018;BME280;3549;42.162;24.726;2023-02-15T03:42:05;47699.75;;;-141.97;60.13
7018;BME280;3549;42.162;24.726;2023-02-15T03:44:41;47667.06;;;-141.97;59.95
7018;BME280;3549;42.162;24.726;2023-02-15T03:47:20;47695.91;;;-141.97;59.11
7018;BME280;3549;42.162;24.726;2023-02-15T03:52:17;47592.13;;;-141.97;59.17
7018;BME280;3549;42.162;24.726;2023-02-15T03:54:43;47611.34;;;-141.97;59.42
7018;BME280;3549;42.162;24.726;2023-02-15T03:57:23;47659.38;;;-141.97;59.06
7018;BME280;3549;42.162;24.726;2023-02-15T04:00:14;47678.63;;;-141.97;59.31
7018;BME280;3549;42.162;24.726;2023-02-15T04:05:43;47665.16;;;-141.97;59.92
7018;BME280;3549;42.162;24.726;2023-02-15T04:08:10;47670.91;;;-141.97;59.81
7018;BME280;3549;42.162;24.726;2023-02-15T04:10:36;47653.63;;;-141.97;59.77
7018;BME280;3549;42.162;24.726;2023-02-15T04:13:33;47642.09;;;-141.97;59.24
7018;BME280;3549;42.162;24.726;2023-02-15T04:15:58;47686.31;;;-141.97;60.13
7018;BME280;3549;42.162;24.726;2023-02-15T04:21:19;47665.16;;;-141.97;59.68
7018;BME280;3549;42.162;24.726;2023-02-15T04:24:04;47678.63;;;-141.97;59.70
7018;BME280;3549;42.162;24.726;2023-02-15T04:26:48;47572.91;;;-141.97;59.53
7018;BME280;3549;42.162;24.726;2023-02-15T04:29:14;47642.09;;;-141.97;58.96
7018;BME280;3549;42.162;24.726;2023-02-15T04:31:40;47703.59;;;-141.97;59.34
7018;BME280;3549;42.162;24.726;2023-02-15T04:34:06;47636.31;;;-141.97;58.90
7018;BME280;3549;42.162;24.726;2023-02-15T04:36:31;47726.66;;;-141.97;59.18
7018;BME280;3549;42.162;24.726;2023-02-15T04:38:56;47669.00;;;-141.97;59.40
7018;BME280;3549;42.162;24.726;2023-02-15T04:41:22;47697.84;;;-141.97;59.62
7018;BME280;3549;42.162;24.726;2023-02-15T04:43:47;47726.66;;;-141.97;59.34
7018;BME280;3549;42.162;24.726;2023-02-15T04:46:13;47717.06;;;-141.97;59.65
7018;BME280;3549;42.162;24.726;2023-02-15T04:48:38;47692.06;;;-141.97;59.44
7018;BME280;3549;42.162;24.726;2023-02-15T04:51:07;47669.00;;;-141.97;59.38
7018;BME280;3549;42.162;24.726;2023-02-15T04:53:33;47722.81;;;-141.97;59.43
7018;BME280;3549;42.162;24.726;2023-02-15T04:55:58;47753.56;;;-141.97;59.07
7018;BME280;3549;42.162;24.726;2023-02-15T04:58:24;47718.97;;;-141.97;59.20
7018;BME280;3549;42.162;24.726;2023-02-15T05:00:49;47626.72;;;-141.97;59.22
7018;BME280;3549;42.162;24.726;2023-02-15T05:03:14;47645.94;;;-141.97;58.93
7018;BME280;3549;42.162;24.726;2023-02-15T05:05:40;47613.25;;;-141.97;58.93
7018;BME280;3549;42.162;24.726;2023-02-15T05:08:05;47715.13;;;-141.97;59.29
7018;BME280;3549;42.162;24.726;2023-02-15T05:10:31;47734.34;;;-141.97;59.12
7018;BME280;3549;42.162;24.726;2023-02-15T05:12:56;47707.44;;;-141.97;59.05
7018;BME280;3549;42.162;24.726;2023-02-15T05:15:21;47670.91;;;-141.97;59.01
7018;BME280;3549;42.162;24.726;2023-02-15T05:17:47;47576.75;;;-141.97;59.44
7018;BME280;3549;42.162;24.726;2023-02-15T05:20:12;47738.19;;;-141.97;58.82
7018;BME280;3549;42.162;24.726;2023-02-15T05:22:38;47613.25;;;-141.97;58.67
7018;BME280;3549;42.162;24.726;2023-02-15T05:25:03;47661.31;;;-141.97;58.45
7018;BME280;3549;42.162;24.726;2023-02-15T05:27:47;47647.84;;;-141.97;58.27
7018;BME280;3549;42.162;24.726;2023-02-15T05:30:31;47669.00;;;-141.97;58.65
7018;BME280;3549;42.162;24.726;2023-02-15T05:32:56;47682.47;;;-141.97;59.01
7018;BME280;3549;42.162;24.726;2023-02-15T05:35:22;47682.47;;;-141.97;58.77
7018;BME280;3549;42.162;24.726;2023-02-15T05:37:47;47684.38;;;-141.97;59.05
7018;BME280;3549;42.162;24.726;2023-02-15T05:40:13;47667.06;;;-141.97;59.18
7018;BME280;3549;42.162;24.726;2023-02-15T05:42:38;47661.31;;;-141.97;59.51
7018;BME280;3549;42.162;24.726;2023-02-15T05:45:04;47680.53;;;-141.97;60.21
7018;BME280;3549;42.162;24.726;2023-02-15T05:47:30;47665.16;;;-141.97;59.28
7018;BME280;3549;42.162;24.726;2023-02-15T05:49:56;47686.31;;;-141.97;59.34
7018;BME280;3549;42.162;24.726;2023-02-15T05:52:21;47653.63;;;-141.97;59.07
7018;BME280;3549;42.162;24.726;2023-02-15T05:54:46;47642.09;;;-141.97;59.70
7018;BME280;3549;42.162;24.726;2023-02-15T05:57:12;47730.50;;;-141.97;59.40
7018;BME280;3549;42.162;24.726;2023-02-15T05:59:37;47634.41;;;-141.97;59.19
7018;BME280;3549;42.162;24.726;2023-02-15T06:02:02;47638.25;;;-141.97;58.92
7018;BME280;3549;42.162;24.726;2023-02-15T06:04:28;47711.28;;;-141.97;58.58
7018;BME280;3549;42.162;24.726;2023-02-15T06:06:53;47726.66;;;-141.97;58.69
7018;BME280;3549;42.162;24.726;2023-02-15T06:09:18;47647.84;;;-141.97;58.13
7018;BME280;3549;42.162;24.726;2023-02-15T06:11:45;47601.72;;;-141.97;58.38
7018;BME280;3549;42.162;24.726;2023-02-15T06:14:10;47619.03;;;-141.97;58.50
7018;BME280;3549;42.162;24.726;2023-02-15T06:16:36;47661.31;;;-141.97;58.06
7018;BME280;3549;42.162;24.726;2023-02-15T06:19:02;47686.31;;;-141.97;57.75
7018;BME280;3549;42.162;24.726;2023-02-15T06:21:28;47688.22;;;-141.97;57.86
7018;BME280;3549;42.162;24.726;2023-02-15T06:23:54;47676.69;;;-141.97;57.39
7018;BME280;3549;42.162;24.726;2023-02-15T06:26:19;47580.59;;;-141.97;56.96
7018;BME280;3549;42.162;24.726;2023-02-15T06:28:44;47578.66;;;-141.97;56.66
7018;BME280;3549;42.162;24.726;2023-02-15T06:31:10;47688.22;;;-141.97;56.39
7018;BME280;3549;42.162;24.726;2023-02-15T06:33:35;47705.53;;;-141.97;56.23
7018;BME280;3549;42.162;24.726;2023-02-15T06:36:01;47682.47;;;-141.97;55.61
7018;BME280;3549;42.162;24.726;2023-02-15T06:38:27;47665.16;;;-141.97;55.15
7018;BME280;3549;42.162;24.726;2023-02-15T06:40:52;47692.06;;;-141.97;55.21
7018;BME280;3549;42.162;24.726;2023-02-15T06:43:18;47730.50;;;-141.97;55.02
7018;BME280;3549;42.162;24.726;2023-02-15T06:45:43;47605.56;;;-141.97;54.44
7018;BME280;3549;42.162;24.726;2023-02-15T06:48:09;47569.06;;;-141.97;54.17
7018;BME280;3549;42.162;24.726;2023-02-15T06:50:36;47665.16;;;-141.97;53.02
7018;BME280;3549;42.162;24.726;2023-02-15T06:53:02;47645.94;;;-141.97;53.07
7018;BME280;3549;42.162;24.726;2023-02-15T06:55:27;47684.38;;;-141.97;53.64
7018;BME280;3549;42.162;24.726;2023-02-15T06:57:53;47674.78;;;-141.97;52.97
7018;BME280;3549;42.162;24.726;2023-02-15T07:00:18;47638.25;;;-141.97;52.11
7018;BME280;3549;42.162;24.726;2023-02-15T07:02:44;47655.53;;;-141.97;51.62
7018;BME280;3549;42.162;24.726;2023-02-15T07:05:11;47755.50;;;-141.97;51.43
7018;BME280;3549;42.162;24.726;2023-02-15T07:07:36;47688.22;;;-141.97;51.25
7018;BME280;3549;42.162;24.726;2023-02-15T07:10:02;47694.00;;;-141.97;50.80
7018;BME280;3549;42.162;24.726;2023-02-15T07:12:28;47653.63;;;-141.97;50.22
7018;BME280;3549;42.162;24.726;2023-02-15T07:15:11;47707.44;;;-141.97;49.51
7018;BME280;3549;42.162;24.726;2023-02-15T07:17:37;47688.22;;;-141.97;49.44
7018;BME280;3549;42.162;24.726;2023-02-15T07:20:11;47684.38;;;-141.97;48.88
7018;BME280;3549;42.162;24.726;2023-02-15T07:22:37;47680.53;;;-141.97;48.85
7018;BME280;3549;42.162;24.726;2023-02-15T07:25:07;47772.78;;;-141.97;49.20
7018;BME280;3549;42.162;24.726;2023-02-15T07:27:33;47711.28;;;-141.97;48.72
7018;BME280;3549;42.162;24.726;2023-02-15T07:29:59;47699.75;;;-141.97;48.93
7018;BME280;3549;42.162;24.726;2023-02-15T07:32:28;47692.06;;;-141.97;48.44
7018;BME280;3549;42.162;24.726;2023-02-15T07:34:53;47630.56;;;-141.97;47.93
7018;BME280;3549;42.162;24.726;2023-02-15T07:37:18;47753.56;;;-141.97;47.66
7018;BME280;3549;42.162;24.726;2023-02-15T07:39:44;47661.31;;;-141.97;48.44
7018;BME280;3549;42.162;24.726;2023-02-15T07:42:09;47561.38;;;-141.97;47.63
7018;BME280;3549;42.162;24.726;2023-02-15T07:44:34;47661.31;;;-141.97;47.46
7018;BME280;3549;42.162;24.726;2023-02-15T07:47:00;47663.22;;;-141.97;47.52
7018;BME280;3549;42.162;24.726;2023-02-15T07:49:25;47676.69;;;-141.97;46.66
7018;BME280;3549;42.162;24.726;2023-02-15T07:51:51;47672.84;;;-141.97;47.27
7018;BME280;3549;42.162;24.726;2023-02-15T07:54:16;47657.47;;;-141.97;46.56
7018;BME280;3549;42.162;24.726;2023-02-15T07:56:41;47667.06;;;-141.97;46.04
7018;BME280;3549;42.162;24.726;2023-02-15T07:59:07;47549.84;;;-141.97;47.05
7018;BME280;3549;42.162;24.726;2023-02-15T08:01:37;47672.84;;;-141.97;46.01
7018;BME280;3549;42.162;24.726;2023-02-15T08:04:05;47678.63;;;-141.97;45.49
7018;BME280;3549;42.162;24.726;2023-02-15T08:06:33;47703.59;;;-141.97;45.62
7018;BME280;3549;42.162;24.726;2023-02-15T08:08:59;47672.84;;;-141.97;45.68
7018;BME280;3549;42.162;24.726;2023-02-15T08:11:29;47684.38;;;-141.97;46.04
7018;BME280;3549;42.162;24.726;2023-02-15T08:16:38;47653.63;;;-141.97;44.91
7018;BME280;3549;42.162;24.726;2023-02-15T08:19:10;47619.03;;;-141.97;44.86
7018;BME280;3549;42.162;24.726;2023-02-15T08:21:39;47651.69;;;-141.97;44.68
7018;BME280;3549;42.162;24.726;2023-02-15T08:24:06;47653.63;;;-141.97;44.08
7018;BME280;3549;42.162;24.726;2023-02-15T08:26:33;47657.47;;;-141.97;43.41
7018;BME280;3549;42.162;24.726;2023-02-15T08:28:59;47657.47;;;-141.97;43.37
7018;BME280;3549;42.162;24.726;2023-02-15T08:31:25;47651.69;;;-141.97;42.90
7018;BME280;3549;42.162;24.726;2023-02-15T08:33:52;47768.94;;;-141.97;43.58
7018;BME280;3549;42.162;24.726;2023-02-15T08:36:20;47647.84;;;-141.97;43.21
7018;BME280;3549;42.162;24.726;2023-02-15T08:38:46;47678.63;;;-141.97;43.50
7018;BME280;3549;42.162;24.726;2023-02-15T08:41:24;47661.31;;;-141.97;43.42
7018;BME280;3549;42.162;24.726;2023-02-15T08:43:52;47676.69;;;-141.97;42.74
7018;BME280;3549;42.162;24.726;2023-02-15T08:46:19;47586.34;;;-141.97;43.67
7018;BME280;3549;42.162;24.726;2023-02-15T08:48:45;47665.16;;;-141.97;43.88
7018;BME280;3549;42.162;24.726;2023-02-15T08:51:23;47586.34;;;-141.97;42.71
7018;BME280;3549;42.162;24.726;2023-02-15T08:53:52;47745.88;;;-141.97;41.85
7018;BME280;3549;42.162;24.726;2023-02-15T08:56:20;47599.81;;;-141.97;42.92
7018;BME280;3549;42.162;24.726;2023-02-15T08:58:46;47594.03;;;-141.97;42.03
7018;BME280;3549;42.162;24.726;2023-02-15T09:01:13;47688.22;;;-141.97;41.53
7018;BME280;3549;42.162;24.726;2023-02-15T09:03:39;47597.88;;;-141.97;40.61
7018;BME280;3549;42.162;24.726;2023-02-15T09:06:06;47672.84;;;-141.97;41.06
7018;BME280;3549;42.162;24.726;2023-02-15T09:08:31;47667.06;;;-141.97;41.44
7018;BME280;3549;42.162;24.726;2023-02-15T09:11:08;47653.63;;;-141.97;40.60
7018;BME280;3549;42.162;24.726;2023-02-15T09:13:33;47669.00;;;-141.97;41.87
7018;BME280;3549;42.162;24.726;2023-02-15T09:16:01;47770.88;;;-141.97;41.74
7018;BME280;3549;42.162;24.726;2023-02-15T09:18:27;47695.91;;;-141.97;41.35
7018;BME280;3549;42.162;24.726;2023-02-15T09:20:53;47699.75;;;-141.97;40.34
7018;BME280;3549;42.162;24.726;2023-02-15T09:23:20;47692.06;;;-141.97;40.29
7018;BME280;3549;42.162;24.726;2023-02-15T09:25:45;47630.56;;;-141.97;40.48
7018;BME280;3549;42.162;24.726;2023-02-15T09:28:11;47740.13;;;-141.97;40.43
7018;BME280;3549;42.162;24.726;2023-02-15T09:30:37;47672.84;;;-141.97;39.55
7018;BME280;3549;42.162;24.726;2023-02-15T09:33:02;47722.81;;;-141.97;38.47
7018;BME280;3549;42.162;24.726;2023-02-15T09:35:28;47626.72;;;-141.97;37.98
7018;BME280;3549;42.162;24.726;2023-02-15T09:37:53;47715.13;;;-141.97;38.08
7018;BME280;3549;42.162;24.726;2023-02-15T09:40:18;47547.91;;;-141.97;38.79
7018;BME280;3549;42.162;24.726;2023-02-15T09:45:53;47705.53;;;-141.97;38.46
7018;BME280;3549;42.162;24.726;2023-02-15T09:48:26;47680.53;;;-141.97;38.61
7018;BME280;3549;42.162;24.726;2023-02-15T09:51:13;47768.94;;;-141.97;38.27
7018;BME280;3549;42.162;24.726;2023-02-15T09:56:43;47672.84;;;-141.97;39.66
7018;BME280;3549;42.162;24.726;2023-02-15T09:59:45;47649.78;;;-141.97;38.33
7018;BME280;3549;42.162;24.726;2023-02-15T10:08:38;47755.50;;;-141.97;37.75
7018;BME280;3549;42.162;24.726;2023-02-15T10:11:23;47603.66;;;-141.97;36.99
7018;BME280;3549;42.162;24.726;2023-02-15T10:17:04;47645.94;;;-141.97;36.67
7018;BME280;3549;42.162;24.726;2023-02-15T10:19:56;47649.78;;;-141.97;37.13
7018;BME280;3549;42.162;24.726;2023-02-15T10:22:43;47657.47;;;-141.97;37.40
7018;BME280;3549;42.162;24.726;2023-02-15T10:28:06;47661.31;;;-141.97;36.21
7018;BME280;3549;42.162;24.726;2023-02-15T10:30:50;47672.84;;;-141.97;36.69
7018;BME280;3549;42.162;24.726;2023-02-15T10:33:39;47659.38;;;-141.97;35.54
7018;BME280;3549;42.162;24.726;2023-02-15T10:38:48;47695.91;;;-141.97;36.75
7018;BME280;3549;42.162;24.726;2023-02-15T10:46:32;47688.22;;;-141.97;35.65
7018;BME280;3549;42.162;24.726;2023-02-15T10:49:28;47665.16;;;-141.97;36.16
7018;BME280;3549;42.162;24.726;2023-02-15T10:54:49;47669.00;;;-141.97;35.41
7018;BME280;3549;42.162;24.726;2023-02-15T11:00:15;47645.94;;;-141.97;35.49
7018;BME280;3549;42.162;24.726;2023-02-15T11:08:24;47644.00;;;-141.97;34.97
7018;BME280;3549;42.162;24.726;2023-02-15T11:10:54;47665.16;;;-141.97;34.22
7018;BME280;3549;42.162;24.726;2023-02-15T11:13:26;47663.22;;;-141.97;34.36
7018;BME280;3549;42.162;24.726;2023-02-15T11:15:57;47607.50;;;-141.97;34.53
7018;BME280;3549;42.162;24.726;2023-02-15T11:18:32;47626.72;;;-141.97;34.79
7018;BME280;3549;42.162;24.726;2023-02-15T11:23:51;47655.53;;;-141.97;34.76
7018;BME280;3549;42.162;24.726;2023-02-15T11:26:40;47661.31;;;-141.97;35.43
7018;BME280;3549;42.162;24.726;2023-02-15T11:29:12;47582.50;;;-141.97;35.29
7018;BME280;3549;42.162;24.726;2023-02-15T11:31:44;47628.63;;;-141.97;35.63
7018;BME280;3549;42.162;24.726;2023-02-15T11:34:31;47747.81;;;-141.97;35.40
7018;BME280;3549;42.162;24.726;2023-02-15T11:37:05;47651.69;;;-141.97;35.26
7018;BME280;3549;42.162;24.726;2023-02-15T11:39:33;47645.94;;;-141.97;34.76
7018;BME280;3549;42.162;24.726;2023-02-15T11:42:06;47638.25;;;-141.97;34.21
7018;BME280;3549;42.162;24.726;2023-02-15T11:44:35;47647.84;;;-141.97;34.38
7018;BME280;3549;42.162;24.726;2023-02-15T11:47:02;47767.03;;;-141.97;34.32
7018;BME280;3549;42.162;24.726;2023-02-15T11:49:32;47678.63;;;-141.97;34.47
7018;BME280;3549;42.162;24.726;2023-02-15T11:52:07;47605.56;;;-141.97;34.63
7018;BME280;3549;42.162;24.726;2023-02-15T11:54:35;47647.84;;;-141.97;34.53
7018;BME280;3549;42.162;24.726;2023-02-15T11:59:46;47670.91;;;-141.97;34.91
7018;BME280;3549;42.162;24.726;2023-02-15T12:02:20;47676.69;;;-141.97;34.80
7018;BME280;3549;42.162;24.726;2023-02-15T12:04:59;47634.41;;;-141.97;34.61
7018;BME280;3549;42.162;24.726;2023-02-15T12:07:31;47674.78;;;-141.97;34.41
7018;BME280;3549;42.162;24.726;2023-02-15T12:10:00;47644.00;;;-141.97;34.13
7018;BME280;3549;42.162;24.726;2023-02-15T12:12:31;47619.03;;;-141.97;34.33
7018;BME280;3549;42.162;24.726;2023-02-15T12:14:59;47665.16;;;-141.97;34.02
7018;BME280;3549;42.162;24.726;2023-02-15T12:20:02;47661.31;;;-141.97;34.42
7018;BME280;3549;42.162;24.726;2023-02-15T12:22:31;47595.97;;;-141.97;34.52
7018;BME280;3549;42.162;24.726;2023-02-15T12:25:03;47557.53;;;-141.97;33.95
7018;BME280;3549;42.162;24.726;2023-02-15T12:27:32;47649.78;;;-141.97;33.93
7018;BME280;3549;42.162;24.726;2023-02-15T12:29:59;47640.16;;;-141.97;34.00
7018;BME280;3549;42.162;24.726;2023-02-15T12:32:31;47642.09;;;-141.97;33.54
7018;BME280;3549;42.162;24.726;2023-02-15T12:35:32;47626.72;;;-141.97;33.10
7018;BME280;3549;42.162;24.726;2023-02-15T12:38:21;47620.94;;;-141.97;32.37
7018;BME280;3549;42.162;24.726;2023-02-15T12:41:05;47649.78;;;-141.97;32.49
7018;BME280;3549;42.162;24.726;2023-02-15T12:43:46;47603.66;;;-141.97;32.52
7018;BME280;3549;42.162;24.726;2023-02-15T12:46:23;47672.84;;;-141.97;32.39
7018;BME280;3549;42.162;24.726;2023-02-15T12:49:24;47644.00;;;-141.97;32.61
7018;BME280;3549;42.162;24.726;2023-02-15T12:51:53;47657.47;;;-141.97;32.31
7018;BME280;3549;42.162;24.726;2023-02-15T12:56:47;47507.53;;;-141.97;32.99
7018;BME280;3549;42.162;24.726;2023-02-15T12:59:14;47663.22;;;-141.97;32.83
7018;BME280;3549;42.162;24.726;2023-02-15T13:01:46;47515.22;;;-141.97;32.92
7018;BME280;3549;42.162;24.726;2023-02-15T13:04:29;47584.44;;;-141.97;32.44
7018;BME280;3549;42.162;24.726;2023-02-15T13:07:00;47611.34;;;-141.97;31.84
7018;BME280;3549;42.162;24.726;2023-02-15T13:09:38;47730.50;;;-141.97;32.02
7018;BME280;3549;42.162;24.726;2023-02-15T13:12:16;47603.66;;;-141.97;32.25
7018;BME280;3549;42.162;24.726;2023-02-15T13:14:45;47694.00;;;-141.97;31.96
7018;BME280;3549;42.162;24.726;2023-02-15T13:17:13;47732.44;;;-141.97;31.41
7018;BME280;3549;42.162;24.726;2023-02-15T13:19:44;47749.72;;;-141.97;32.19
7018;BME280;3549;42.162;24.726;2023-02-15T13:22:14;47659.38;;;-141.97;32.30
7018;BME280;3549;42.162;24.726;2023-02-15T13:25:03;47622.88;;;-141.97;32.33
7018;BME280;3549;42.162;24.726;2023-02-15T13:27:35;47653.63;;;-141.97;32.33
7018;BME280;3549;42.162;24.726;2023-02-15T13:30:10;47632.47;;;-141.97;31.83
7018;BME280;3549;42.162;24.726;2023-02-15T13:32:40;47628.63;;;-141.97;31.39
7018;BME280;3549;42.162;24.726;2023-02-15T13:35:14;47605.56;;;-141.97;31.12
7018;BME280;3549;42.162;24.726;2023-02-15T13:40:45;47661.31;;;-141.97;30.62
7018;BME280;3549;42.162;24.726;2023-02-15T13:48:45;47582.50;;;-141.97;30.79
7018;BME280;3549;42.162;24.726;2023-02-15T13:51:14;47649.78;;;-141.97;30.54
7018;BME280;3549;42.162;24.726;2023-02-15T14:13:34;47636.31;;;-141.97;29.47
7018;BME280;3549;42.162;24.726;2023-02-15T14:22:35;47611.34;;;-141.97;29.86
7018;BME280;3549;42.162;24.726;2023-02-15T14:28:08;47674.78;;;-141.97;30.12
7018;BME280;3549;42.162;24.726;2023-02-15T14:30:38;47540.22;;;-141.97;29.75
7018;BME280;3549;42.162;24.726;2023-02-15T14:35:34;47619.03;;;-141.97;29.02
7018;BME280;3549;42.162;24.726;2023-02-15T14:38:16;47630.56;;;-141.97;28.27
7018;BME280;3549;42.162;24.726;2023-02-15T14:46:52;47619.03;;;-141.97;29.11
7018;BME280;3549;42.162;24.726;2023-02-15T14:49:25;47584.44;;;-141.97;29.87
7018;BME280;3549;42.162;24.726;2023-02-15T14:51:57;47601.72;;;-141.97;30.58
7018;BME280;3549;42.162;24.726;2023-02-15T15:02:10;47603.66;;;-141.97;31.76
7018;BME280;3549;42.162;24.726;2023-02-15T15:04:44;47634.41;;;-141.97;31.53
7018;BME280;3549;42.162;24.726;2023-02-15T15:07:26;47638.25;;;-141.97;31.73
7018;BME280;3549;42.162;24.726;2023-02-15T15:12:43;47644.00;;;-141.97;32.16
7018;BME280;3549;42.162;24.726;2023-02-15T15:15:32;47663.22;;;-141.97;32.52
7018;BME280;3549;42.162;24.726;2023-02-15T15:18:06;47665.16;;;-141.97;32.90
7018;BME280;3549;42.162;24.726;2023-02-15T15:20:51;47622.88;;;-141.97;33.31
7018;BME280;3549;42.162;24.726;2023-02-15T15:25:44;47645.94;;;-141.97;33.02
7018;BME280;3549;42.162;24.726;2023-02-15T15:37:01;47603.66;;;-141.97;33.65
7018;BME280;3549;42.162;24.726;2023-02-15T15:50:28;47669.00;;;-141.97;34.19
7018;BME280;3549;42.162;24.726;2023-02-15T15:52:57;47640.16;;;-141.97;34.42
7018;BME280;3549;42.162;24.726;2023-02-15T15:55:26;47595.97;;;-141.97;34.36